Anamoose, North Dakota
Current Conditions -  °F | °C
As of 10:35 AM on Monday 26 Jan 2015 (Local Time) from K5H4 Reporting Station
Clear Clear  
Wind Chill: -3°   Ceiling: Unl
Heat Index:   Visibility: 10mi
Dew Point:   Wind: 16mph
Humidity: 87%   Direction: 290°WNW
Pressure: 29.89"   Gusts: 21mph
Location:  47.88°N, 100.24°W
Report Text: K5H4 261635Z AUTO 29014G18KT 10SM CLR 02/00 A2989 RMK AO2
Loading
Personal Weather Stations






























Interactive Weather Map New forecast layout! Learn more

10-Day Weather Forecast

Advertisements
Track Severe Weather on mobile